Mountville, Georgia
Current Conditions -  °F | °C
As of 8:35 AM on Friday 28 Nov 2014 (Local Time) from KLGC Reporting Station
Clear Clear  
Wind Chill: 35°   Ceiling: Unl
Heat Index: 35°   Visibility: 10mi
Dew Point: 28°   Wind: 0mph
Humidity: 77%   Direction: NA
Pressure: 30.41"   Gusts: NA
Location:  33.0399°N, 84.8806°W
Report Text: KLGC 281335Z AUTO 00000KT 10SM CLR 02/M02 A3041 RMK AO2 T00161021
Loading
Personal Weather Stations






























Interactive Weather Map New forecast layout! Learn more

10-Day Weather Forecast

Advertisements
Track Severe Weather on mobile